sensor_id;sensor_type;location;lat;lon;timestamp;temperature;humidity
9901;DHT22;4989;48.772;9.154;2023-08-24T10:09:56;35.60;52.20
9901;DHT22;4989;48.772;9.154;2023-08-24T10:15:03;37.00;50.40
9901;DHT22;4989;48.772;9.154;2023-08-24T10:20:10;37.30;49.90
9901;DHT22;4989;48.772;9.154;2023-08-24T10:25:13;37.80;49.50
9901;DHT22;4989;48.772;9.154;2023-08-24T10:30:15;38.30;48.90
9901;DHT22;4989;48.772;9.154;2023-08-24T10:35:21;38.60;48.70
9901;DHT22;4989;48.772;9.154;2023-08-24T10:40:37;39.00;48.20
9901;DHT22;4989;48.772;9.154;2023-08-24T10:45:59;39.50;47.90
9901;DHT22;4989;48.772;9.154;2023-08-24T10:56:19;40.40;47.70
9901;DHT22;4989;48.772;9.154;2023-08-24T11:01:24;40.80;48.20
9901;DHT22;4989;48.772;9.154;2023-08-24T11:06:26;40.90;46.90
9901;DHT22;4989;48.772;9.154;2023-08-24T11:11:30;41.10;46.80
9901;DHT22;4989;48.772;9.154;2023-08-24T11:16:42;41.20;46.90
9901;DHT22;4989;48.772;9.154;2023-08-24T11:21:46;41.50;46.80
9901;DHT22;4989;48.772;9.154;2023-08-24T11:26:49;41.70;47.10
9901;DHT22;4989;48.772;9.154;2023-08-24T11:31:51;42.10;47.00
9901;DHT22;4989;48.772;9.154;2023-08-24T11:36:54;42.10;46.10
9901;DHT22;4989;48.772;9.154;2023-08-24T11:42:05;42.10;46.80
9901;DHT22;4989;48.772;9.154;2023-08-24T11:47:11;42.50;46.40
9901;DHT22;4989;48.772;9.154;2023-08-24T11:52:13;42.70;46.30
9901;DHT22;4989;48.772;9.154;2023-08-24T11:57:18;43.30;46.40
9901;DHT22;4989;48.772;9.154;2023-08-24T12:02:21;42.80;46.40
9901;DHT22;4989;48.772;9.154;2023-08-24T12:07:24;42.10;46.50
9901;DHT22;4989;48.772;9.154;2023-08-24T12:12:30;40.90;47.10
9901;DHT22;4989;48.772;9.154;2023-08-24T12:17:42;38.90;49.00
9901;DHT22;4989;48.772;9.154;2023-08-24T12:22:54;39.60;48.90
9901;DHT22;4989;48.772;9.154;2023-08-24T12:28:12;39.10;49.20
9901;DHT22;4989;48.772;9.154;2023-08-24T12:33:26;39.40;49.20
9901;DHT22;4989;48.772;9.154;2023-08-24T12:38:29;39.60;49.60
9901;DHT22;4989;48.772;9.154;2023-08-24T12:43:31;40.00;48.30
9901;DHT22;4989;48.772;9.154;2023-08-24T12:48:33;39.70;48.80
9901;DHT22;4989;48.772;9.154;2023-08-24T12:53:35;38.90;49.00
9901;DHT22;4989;48.772;9.154;2023-08-24T12:58:38;39.20;48.70
9901;DHT22;4989;48.772;9.154;2023-08-24T13:03:40;38.90;49.30
9901;DHT22;4989;48.772;9.154;2023-08-24T13:08:42;39.10;49.30
9901;DHT22;4989;48.772;9.154;2023-08-24T13:13:46;39.90;48.50
9901;DHT22;4989;48.772;9.154;2023-08-24T13:18:50;39.50;48.60
9901;DHT22;4989;48.772;9.154;2023-08-24T13:23:52;39.10;49.00
9901;DHT22;4989;48.772;9.154;2023-08-24T13:28:54;38.90;48.90
9901;DHT22;4989;48.772;9.154;2023-08-24T13:33:58;39.80;48.90
9901;DHT22;4989;48.772;9.154;2023-08-24T13:39:00;40.70;47.40
9901;DHT22;4989;48.772;9.154;2023-08-24T13:44:02;40.30;47.00
9901;DHT22;4989;48.772;9.154;2023-08-24T13:49:04;39.00;48.10
9901;DHT22;4989;48.772;9.154;2023-08-24T13:54:17;39.20;48.60
9901;DHT22;4989;48.772;9.154;2023-08-24T13:59:20;40.50;47.50
9901;DHT22;4989;48.772;9.154;2023-08-24T14:04:23;40.20;46.20
9901;DHT22;4989;48.772;9.154;2023-08-24T14:09:28;39.60;46.80
9901;DHT22;4989;48.772;9.154;2023-08-24T14:14:30;39.90;45.00
9901;DHT22;4989;48.772;9.154;2023-08-24T14:19:32;38.50;45.80
9901;DHT22;4989;48.772;9.154;2023-08-24T14:24:35;38.40;46.30
9901;DHT22;4989;48.772;9.154;2023-08-24T14:29:37;37.80;47.90
9901;DHT22;4989;48.772;9.154;2023-08-24T14:34:40;38.00;46.90
9901;DHT22;4989;48.772;9.154;2023-08-24T14:39:42;37.30;47.50
9901;DHT22;4989;48.772;9.154;2023-08-24T14:44:44;37.40;47.40
9901;DHT22;4989;48.772;9.154;2023-08-24T14:49:46;37.10;48.70
9901;DHT22;4989;48.772;9.154;2023-08-24T14:54:48;36.70;49.20
9901;DHT22;4989;48.772;9.154;2023-08-24T14:59:51;36.10;50.00
